sensor_id;sensor_type;location;lat;lon;timestamp;temperature;humidity
15690;DHT22;7945;48.816;11.506;2023-07-29T00:00:14;20.30;99.90
15690;DHT22;7945;48.816;11.506;2023-07-29T00:02:41;20.30;99.90
15690;DHT22;7945;48.816;11.506;2023-07-29T00:05:09;20.30;99.90
15690;DHT22;7945;48.816;11.506;2023-07-29T00:07:38;20.30;99.90
15690;DHT22;7945;48.816;11.506;2023-07-29T00:10:06;20.30;99.90
15690;DHT22;7945;48.816;11.506;2023-07-29T00:12:33;20.30;99.90
15690;DHT22;7945;48.816;11.506;2023-07-29T00:14:59;20.30;99.90
15690;DHT22;7945;48.816;11.506;2023-07-29T00:17:26;20.30;99.90
15690;DHT22;7945;48.816;11.506;2023-07-29T00:19:53;20.40;99.90
15690;DHT22;7945;48.816;11.506;2023-07-29T00:22:20;20.40;99.90
15690;DHT22;7945;48.816;11.506;2023-07-29T00:24:52;20.40;99.90
15690;DHT22;7945;48.816;11.506;2023-07-29T00:27:20;20.40;99.90
15690;DHT22;7945;48.816;11.506;2023-07-29T00:29:47;20.40;99.90
15690;DHT22;7945;48.816;11.506;2023-07-29T00:32:14;20.40;99.90
15690;DHT22;7945;48.816;11.506;2023-07-29T00:34:41;20.40;99.90
15690;DHT22;7945;48.816;11.506;2023-07-29T00:37:07;20.30;99.90
15690;DHT22;7945;48.816;11.506;2023-07-29T00:39:34;20.40;99.90
15690;DHT22;7945;48.816;11.506;2023-07-29T00:42:03;20.40;99.90
15690;DHT22;7945;48.816;11.506;2023-07-29T00:44:30;20.30;99.90
15690;DHT22;7945;48.816;11.506;2023-07-29T00:46:58;20.30;99.90
15690;DHT22;7945;48.816;11.506;2023-07-29T00:49:27;20.30;99.90
15690;DHT22;7945;48.816;11.506;2023-07-29T00:51:54;20.30;99.90
15690;DHT22;7945;48.816;11.506;2023-07-29T00:54:21;20.30;99.90
15690;DHT22;7945;48.816;11.506;2023-07-29T00:56:47;20.30;99.90
15690;DHT22;7945;48.816;11.506;2023-07-29T00:59:15;20.30;99.90
15690;DHT22;7945;48.816;11.506;2023-07-29T01:01:42;20.30;99.90
15690;DHT22;7945;48.816;11.506;2023-07-29T01:04:09;20.30;99.90
15690;DHT22;7945;48.816;11.506;2023-07-29T01:06:41;20.30;99.90
15690;DHT22;7945;48.816;11.506;2023-07-29T01:09:14;20.20;99.90
15690;DHT22;7945;48.816;11.506;2023-07-29T01:11:50;20.20;99.90
15690;DHT22;7945;48.816;11.506;2023-07-29T01:14:31;20.20;99.90
15690;DHT22;7945;48.816;11.506;2023-07-29T01:17:03;20.20;99.90
15690;DHT22;7945;48.816;11.506;2023-07-29T01:19:45;20.10;99.90
15690;DHT22;7945;48.816;11.506;2023-07-29T01:22:16;20.10;99.90
15690;DHT22;7945;48.816;11.506;2023-07-29T01:24:44;20.10;99.90
15690;DHT22;7945;48.816;11.506;2023-07-29T01:27:11;20.10;99.90
15690;DHT22;7945;48.816;11.506;2023-07-29T01:29:37;20.10;99.90
15690;DHT22;7945;48.816;11.506;2023-07-29T01:32:10;20.00;99.90
15690;DHT22;7945;48.816;11.506;2023-07-29T01:34:42;20.00;99.90
15690;DHT22;7945;48.816;11.506;2023-07-29T01:37:14;20.00;99.90
15690;DHT22;7945;48.816;11.506;2023-07-29T01:39:45;20.00;99.90
15690;DHT22;7945;48.816;11.506;2023-07-29T01:42:13;19.90;99.90
15690;DHT22;7945;48.816;11.506;2023-07-29T01:44:40;19.90;99.90
15690;DHT22;7945;48.816;11.506;2023-07-29T01:47:08;19.90;99.90
15690;DHT22;7945;48.816;11.506;2023-07-29T01:49:34;19.80;99.90
15690;DHT22;7945;48.816;11.506;2023-07-29T01:52:01;19.80;99.90
15690;DHT22;7945;48.816;11.506;2023-07-29T01:54:28;19.80;99.90
15690;DHT22;7945;48.816;11.506;2023-07-29T01:56:56;19.80;99.90
15690;DHT22;7945;48.816;11.506;2023-07-29T01:59:23;19.70;99.90
15690;DHT22;7945;48.816;11.506;2023-07-29T02:01:50;19.70;99.90
15690;DHT22;7945;48.816;11.506;2023-07-29T02:04:16;19.70;99.90
15690;DHT22;7945;48.816;11.506;2023-07-29T02:06:43;19.70;99.90
15690;DHT22;7945;48.816;11.506;2023-07-29T02:09:10;19.70;99.90
15690;DHT22;7945;48.816;11.506;2023-07-29T02:11:37;19.60;99.90
15690;DHT22;7945;48.816;11.506;2023-07-29T02:14:05;19.60;99.90
15690;DHT22;7945;48.816;11.506;2023-07-29T02:16:32;19.60;99.90
15690;DHT22;7945;48.816;11.506;2023-07-29T02:19:00;19.60;99.90
15690;DHT22;7945;48.816;11.506;2023-07-29T02:21:27;19.50;99.90
15690;DHT22;7945;48.816;11.506;2023-07-29T02:23:53;19.50;99.90
15690;DHT22;7945;48.816;11.506;2023-07-29T02:26:20;19.50;99.90
15690;DHT22;7945;48.816;11.506;2023-07-29T02:28:47;19.50;99.90
15690;DHT22;7945;48.816;11.506;2023-07-29T02:31:17;19.40;99.90
15690;DHT22;7945;48.816;11.506;2023-07-29T02:33:44;19.40;99.90
15690;DHT22;7945;48.816;11.506;2023-07-29T02:36:11;19.40;99.90
15690;DHT22;7945;48.816;11.506;2023-07-29T02:38:38;19.40;99.90
15690;DHT22;7945;48.816;11.506;2023-07-29T02:41:05;19.40;99.90
15690;DHT22;7945;48.816;11.506;2023-07-29T02:43:34;19.40;99.90
15690;DHT22;7945;48.816;11.506;2023-07-29T02:46:01;19.40;99.90
15690;DHT22;7945;48.816;11.506;2023-07-29T02:48:29;19.30;99.90
15690;DHT22;7945;48.816;11.506;2023-07-29T02:50:56;19.30;99.90
15690;DHT22;7945;48.816;11.506;2023-07-29T02:53:23;19.30;99.90
15690;DHT22;7945;48.816;11.506;2023-07-29T02:55:50;19.20;99.90
15690;DHT22;7945;48.816;11.506;2023-07-29T02:58:17;19.20;99.90
15690;DHT22;7945;48.816;11.506;2023-07-29T03:00:43;19.20;99.90
15690;DHT22;7945;48.816;11.506;2023-07-29T03:03:10;19.20;99.90
15690;DHT22;7945;48.816;11.506;2023-07-29T03:05:38;19.20;99.90
15690;DHT22;7945;48.816;11.506;2023-07-29T03:08:05;19.20;99.90
15690;DHT22;7945;48.816;11.506;2023-07-29T03:10:34;19.20;99.90
15690;DHT22;7945;48.816;11.506;2023-07-29T03:13:01;19.10;99.90
15690;DHT22;7945;48.816;11.506;2023-07-29T03:15:28;19.00;99.90
15690;DHT22;7945;48.816;11.506;2023-07-29T03:17:55;18.90;99.90
15690;DHT22;7945;48.816;11.506;2023-07-29T03:20:21;18.90;99.90
15690;DHT22;7945;48.816;11.506;2023-07-29T03:22:49;18.90;99.90
15690;DHT22;7945;48.816;11.506;2023-07-29T03:25:17;18.90;99.90
15690;DHT22;7945;48.816;11.506;2023-07-29T03:27:43;18.90;99.90
15690;DHT22;7945;48.816;11.506;2023-07-29T03:30:10;18.90;99.90
15690;DHT22;7945;48.816;11.506;2023-07-29T03:32:43;18.90;99.90
15690;DHT22;7945;48.816;11.506;2023-07-29T03:35:10;19.00;99.90
15690;DHT22;7945;48.816;11.506;2023-07-29T03:37:37;19.00;99.90
15690;DHT22;7945;48.816;11.506;2023-07-29T03:40:07;19.00;99.90
15690;DHT22;7945;48.816;11.506;2023-07-29T03:42:34;19.00;99.90
15690;DHT22;7945;48.816;11.506;2023-07-29T03:45:01;19.00;99.90
15690;DHT22;7945;48.816;11.506;2023-07-29T03:47:28;19.00;99.90
15690;DHT22;7945;48.816;11.506;2023-07-29T03:49:55;19.00;99.90
15690;DHT22;7945;48.816;11.506;2023-07-29T03:52:21;19.00;99.90
15690;DHT22;7945;48.816;11.506;2023-07-29T03:54:48;19.00;99.90
15690;DHT22;7945;48.816;11.506;2023-07-29T03:57:17;19.00;99.90
15690;DHT22;7945;48.816;11.506;2023-07-29T03:59:43;19.00;99.90
15690;DHT22;7945;48.816;11.506;2023-07-29T04:02:10;19.00;99.90
15690;DHT22;7945;48.816;11.506;2023-07-29T04:04:37;19.00;99.90
15690;DHT22;7945;48.816;11.506;2023-07-29T04:07:04;19.10;99.90
15690;DHT22;7945;48.816;11.506;2023-07-29T04:09:31;19.10;99.90
15690;DHT22;7945;48.816;11.506;2023-07-29T04:11:58;19.10;99.90
15690;DHT22;7945;48.816;11.506;2023-07-29T04:14:26;19.10;99.90
15690;DHT22;7945;48.816;11.506;2023-07-29T04:16:53;19.10;99.90
15690;DHT22;7945;48.816;11.506;2023-07-29T04:19:19;19.20;99.90
15690;DHT22;7945;48.816;11.506;2023-07-29T04:21:46;19.20;99.90
15690;DHT22;7945;48.816;11.506;2023-07-29T04:24:13;19.20;99.90
15690;DHT22;7945;48.816;11.506;2023-07-29T04:26:40;19.30;99.90
15690;DHT22;7945;48.816;11.506;2023-07-29T04:29:06;19.30;99.90
15690;DHT22;7945;48.816;11.506;2023-07-29T04:31:34;19.30;99.90
15690;DHT22;7945;48.816;11.506;2023-07-29T04:34:01;19.30;99.90
15690;DHT22;7945;48.816;11.506;2023-07-29T04:36:29;19.20;99.90
15690;DHT22;7945;48.816;11.506;2023-07-29T04:38:55;19.20;99.90
15690;DHT22;7945;48.816;11.506;2023-07-29T04:41:22;19.20;99.90
15690;DHT22;7945;48.816;11.506;2023-07-29T04:43:49;19.20;99.90
15690;DHT22;7945;48.816;11.506;2023-07-29T04:46:16;19.10;99.90
15690;DHT22;7945;48.816;11.506;2023-07-29T04:48:44;19.10;99.90
15690;DHT22;7945;48.816;11.506;2023-07-29T04:51:11;19.20;99.90
15690;DHT22;7945;48.816;11.506;2023-07-29T04:53:37;19.20;99.90
15690;DHT22;7945;48.816;11.506;2023-07-29T04:56:04;19.20;99.90
15690;DHT22;7945;48.816;11.506;2023-07-29T04:58:31;19.20;99.90
15690;DHT22;7945;48.816;11.506;2023-07-29T05:01:00;19.50;99.90
15690;DHT22;7945;48.816;11.506;2023-07-29T05:03:28;20.20;99.90
15690;DHT22;7945;48.816;11.506;2023-07-29T05:05:57;20.90;99.90
15690;DHT22;7945;48.816;11.506;2023-07-29T05:08:25;21.40;99.90
15690;DHT22;7945;48.816;11.506;2023-07-29T05:10:52;21.90;99.90
15690;DHT22;7945;48.816;11.506;2023-07-29T05:13:20;22.40;99.90
15690;DHT22;7945;48.816;11.506;2023-07-29T05:15:47;22.80;99.90
15690;DHT22;7945;48.816;11.506;2023-07-29T05:18:14;23.00;99.90
15690;DHT22;7945;48.816;11.506;2023-07-29T05:20:41;23.30;99.90
15690;DHT22;7945;48.816;11.506;2023-07-29T05:23:09;24.00;99.90
15690;DHT22;7945;48.816;11.506;2023-07-29T05:25:36;24.70;99.90
15690;DHT22;7945;48.816;11.506;2023-07-29T05:28:03;25.30;99.90
15690;DHT22;7945;48.816;11.506;2023-07-29T05:30:30;25.60;99.50
15690;DHT22;7945;48.816;11.506;2023-07-29T05:32:57;25.70;99.10
15690;DHT22;7945;48.816;11.506;2023-07-29T05:35:24;25.20;99.20
15690;DHT22;7945;48.816;11.506;2023-07-29T05:37:51;24.60;99.60
15690;DHT22;7945;48.816;11.506;2023-07-29T05:40:19;24.00;99.90
15690;DHT22;7945;48.816;11.506;2023-07-29T05:42:46;23.50;99.90
15690;DHT22;7945;48.816;11.506;2023-07-29T05:45:13;23.20;99.90
15690;DHT22;7945;48.816;11.506;2023-07-29T05:47:40;22.70;99.90
15690;DHT22;7945;48.816;11.506;2023-07-29T05:50:08;22.70;99.90
15690;DHT22;7945;48.816;11.506;2023-07-29T05:52:36;22.50;99.90
15690;DHT22;7945;48.816;11.506;2023-07-29T05:55:04;22.30;99.90
15690;DHT22;7945;48.816;11.506;2023-07-29T05:57:32;22.10;99.90
15690;DHT22;7945;48.816;11.506;2023-07-29T05:59:59;21.90;99.90
15690;DHT22;7945;48.816;11.506;2023-07-29T06:02:25;21.80;99.90
15690;DHT22;7945;48.816;11.506;2023-07-29T06:04:52;21.80;99.90
15690;DHT22;7945;48.816;11.506;2023-07-29T06:07:19;21.80;99.90
15690;DHT22;7945;48.816;11.506;2023-07-29T06:09:46;22.20;99.90
15690;DHT22;7945;48.816;11.506;2023-07-29T06:15:38;21.70;99.90
15690;DHT22;7945;48.816;11.506;2023-07-29T06:18:05;21.60;99.90
15690;DHT22;7945;48.816;11.506;2023-07-29T06:20:32;21.50;99.90
15690;DHT22;7945;48.816;11.506;2023-07-29T06:22:58;21.50;99.90
15690;DHT22;7945;48.816;11.506;2023-07-29T06:25:25;21.40;99.90
15690;DHT22;7945;48.816;11.506;2023-07-29T06:27:52;21.30;99.90
15690;DHT22;7945;48.816;11.506;2023-07-29T06:30:19;21.30;99.90
15690;DHT22;7945;48.816;11.506;2023-07-29T06:32:47;21.20;99.90
15690;DHT22;7945;48.816;11.506;2023-07-29T06:35:13;21.20;99.90
15690;DHT22;7945;48.816;11.506;2023-07-29T06:37:40;21.20;99.90
15690;DHT22;7945;48.816;11.506;2023-07-29T06:40:08;21.10;99.90
15690;DHT22;7945;48.816;11.506;2023-07-29T06:42:35;21.00;99.90
15690;DHT22;7945;48.816;11.506;2023-07-29T06:45:03;21.00;99.90
15690;DHT22;7945;48.816;11.506;2023-07-29T06:47:30;20.90;99.90
15690;DHT22;7945;48.816;11.506;2023-07-29T06:49:58;20.80;99.90
15690;DHT22;7945;48.816;11.506;2023-07-29T06:52:24;20.80;99.90
15690;DHT22;7945;48.816;11.506;2023-07-29T06:54:51;20.70;99.90
15690;DHT22;7945;48.816;11.506;2023-07-29T06:57:18;20.80;99.90
15690;DHT22;7945;48.816;11.506;2023-07-29T06:59:45;20.80;99.90
15690;DHT22;7945;48.816;11.506;2023-07-29T07:02:10;20.70;99.90
15690;DHT22;7945;48.816;11.506;2023-07-29T07:04:37;20.80;99.90
15690;DHT22;7945;48.816;11.506;2023-07-29T07:07:06;20.80;99.90
15690;DHT22;7945;48.816;11.506;2023-07-29T07:09:32;20.80;99.90
15690;DHT22;7945;48.816;11.506;2023-07-29T07:11:59;20.90;99.90
15690;DHT22;7945;48.816;11.506;2023-07-29T07:14:26;20.90;99.90
15690;DHT22;7945;48.816;11.506;2023-07-29T07:16:53;20.90;99.90
15690;DHT22;7945;48.816;11.506;2023-07-29T07:19:19;21.00;99.90
15690;DHT22;7945;48.816;11.506;2023-07-29T07:21:46;21.00;99.90
15690;DHT22;7945;48.816;11.506;2023-07-29T07:24:14;21.10;99.90
15690;DHT22;7945;48.816;11.506;2023-07-29T07:26:41;21.10;99.90
15690;DHT22;7945;48.816;11.506;2023-07-29T07:29:08;21.10;99.90
15690;DHT22;7945;48.816;11.506;2023-07-29T07:31:34;21.10;99.90
15690;DHT22;7945;48.816;11.506;2023-07-29T07:34:01;21.00;99.90
15690;DHT22;7945;48.816;11.506;2023-07-29T07:36:29;20.90;99.90
15690;DHT22;7945;48.816;11.506;2023-07-29T07:38:56;20.90;99.90
15690;DHT22;7945;48.816;11.506;2023-07-29T07:41:24;20.80;99.90
15690;DHT22;7945;48.816;11.506;2023-07-29T07:43:50;20.80;99.90
15690;DHT22;7945;48.816;11.506;2023-07-29T07:46:17;20.80;99.90
15690;DHT22;7945;48.816;11.506;2023-07-29T07:48:44;20.80;99.90
15690;DHT22;7945;48.816;11.506;2023-07-29T07:51:11;20.80;99.90
15690;DHT22;7945;48.816;11.506;2023-07-29T07:53:38;20.70;99.90
15690;DHT22;7945;48.816;11.506;2023-07-29T07:56:06;20.50;99.90
15690;DHT22;7945;48.816;11.506;2023-07-29T07:58:34;20.40;99.90
15690;DHT22;7945;48.816;11.506;2023-07-29T08:01:02;20.40;99.90
15690;DHT22;7945;48.816;11.506;2023-07-29T08:03:28;20.40;99.90
15690;DHT22;7945;48.816;11.506;2023-07-29T08:05:55;20.30;99.90
15690;DHT22;7945;48.816;11.506;2023-07-29T08:08:22;20.30;99.90
15690;DHT22;7945;48.816;11.506;2023-07-29T08:10:49;20.30;99.90
15690;DHT22;7945;48.816;11.506;2023-07-29T08:13:15;20.30;99.90
15690;DHT22;7945;48.816;11.506;2023-07-29T08:15:47;20.20;99.90
15690;DHT22;7945;48.816;11.506;2023-07-29T08:18:14;20.20;99.90
15690;DHT22;7945;48.816;11.506;2023-07-29T08:20:40;20.20;99.90
15690;DHT22;7945;48.816;11.506;2023-07-29T08:23:07;20.20;99.90
15690;DHT22;7945;48.816;11.506;2023-07-29T08:25:34;20.20;99.90
15690;DHT22;7945;48.816;11.506;2023-07-29T08:28:01;20.20;99.90
15690;DHT22;7945;48.816;11.506;2023-07-29T08:30:27;20.30;99.90
15690;DHT22;7945;48.816;11.506;2023-07-29T08:32:56;20.30;99.90
15690;DHT22;7945;48.816;11.506;2023-07-29T08:35:22;20.40;99.90
15690;DHT22;7945;48.816;11.506;2023-07-29T08:37:49;20.50;99.90
15690;DHT22;7945;48.816;11.506;2023-07-29T08:40:16;20.60;99.90
15690;DHT22;7945;48.816;11.506;2023-07-29T08:42:45;20.70;99.90
15690;DHT22;7945;48.816;11.506;2023-07-29T08:45:13;20.70;99.90
15690;DHT22;7945;48.816;11.506;2023-07-29T08:47:41;20.80;99.90
15690;DHT22;7945;48.816;11.506;2023-07-29T08:50:09;20.90;99.90
15690;DHT22;7945;48.816;11.506;2023-07-29T08:52:37;21.00;99.90
15690;DHT22;7945;48.816;11.506;2023-07-29T08:55:05;21.00;99.90
15690;DHT22;7945;48.816;11.506;2023-07-29T08:57:32;21.10;99.90
15690;DHT22;7945;48.816;11.506;2023-07-29T08:59:58;21.20;99.90
15690;DHT22;7945;48.816;11.506;2023-07-29T09:02:25;21.30;99.90
15690;DHT22;7945;48.816;11.506;2023-07-29T09:04:52;21.30;99.90
15690;DHT22;7945;48.816;11.506;2023-07-29T09:07:20;21.30;99.90
15690;DHT22;7945;48.816;11.506;2023-07-29T09:09:47;21.40;99.90
15690;DHT22;7945;48.816;11.506;2023-07-29T09:12:14;21.40;99.90
15690;DHT22;7945;48.816;11.506;2023-07-29T09:14:41;21.60;99.90
15690;DHT22;7945;48.816;11.506;2023-07-29T09:17:08;21.70;99.90
15690;DHT22;7945;48.816;11.506;2023-07-29T09:19:36;21.90;99.90
15690;DHT22;7945;48.816;11.506;2023-07-29T09:22:03;22.10;99.90
15690;DHT22;7945;48.816;11.506;2023-07-29T09:24:31;22.30;99.90
15690;DHT22;7945;48.816;11.506;2023-07-29T09:27:00;22.40;99.90
15690;DHT22;7945;48.816;11.506;2023-07-29T09:29:28;22.50;99.90
15690;DHT22;7945;48.816;11.506;2023-07-29T09:32:17;22.50;99.90
15690;DHT22;7945;48.816;11.506;2023-07-29T09:34:45;22.30;99.90
15690;DHT22;7945;48.816;11.506;2023-07-29T09:37:16;22.10;99.90
15690;DHT22;7945;48.816;11.506;2023-07-29T09:39:45;21.90;99.90
15690;DHT22;7945;48.816;11.506;2023-07-29T09:42:17;21.80;99.90
15690;DHT22;7945;48.816;11.506;2023-07-29T09:44:44;21.70;99.90
15690;DHT22;7945;48.816;11.506;2023-07-29T09:47:19;21.60;99.90
15690;DHT22;7945;48.816;11.506;2023-07-29T09:49:46;21.60;99.90
15690;DHT22;7945;48.816;11.506;2023-07-29T09:52:14;21.50;99.90
15690;DHT22;7945;48.816;11.506;2023-07-29T09:54:42;21.50;99.90
15690;DHT22;7945;48.816;11.506;2023-07-29T09:57:11;21.50;99.90
15690;DHT22;7945;48.816;11.506;2023-07-29T09:59:37;21.60;99.90
15690;DHT22;7945;48.816;11.506;2023-07-29T10:02:04;21.60;99.90
15690;DHT22;7945;48.816;11.506;2023-07-29T10:04:35;21.70;99.90
15690;DHT22;7945;48.816;11.506;2023-07-29T10:07:02;21.70;99.90
15690;DHT22;7945;48.816;11.506;2023-07-29T10:09:30;21.90;99.90
15690;DHT22;7945;48.816;11.506;2023-07-29T10:11:58;22.00;99.90
15690;DHT22;7945;48.816;11.506;2023-07-29T10:14:28;22.10;99.90
15690;DHT22;7945;48.816;11.506;2023-07-29T10:16:56;22.20;99.90
15690;DHT22;7945;48.816;11.506;2023-07-29T10:19:24;22.40;99.90
15690;DHT22;7945;48.816;11.506;2023-07-29T10:21:52;22.50;99.90
15690;DHT22;7945;48.816;11.506;2023-07-29T10:24:24;22.70;99.90
15690;DHT22;7945;48.816;11.506;2023-07-29T10:26:57;22.70;99.90
15690;DHT22;7945;48.816;11.506;2023-07-29T10:29:30;22.80;99.90
15690;DHT22;7945;48.816;11.506;2023-07-29T10:31:58;22.70;99.90
15690;DHT22;7945;48.816;11.506;2023-07-29T10:34:28;22.80;99.90
15690;DHT22;7945;48.816;11.506;2023-07-29T10:36:55;22.90;99.90
15690;DHT22;7945;48.816;11.506;2023-07-29T10:39:24;23.10;99.90
15690;DHT22;7945;48.816;11.506;2023-07-29T10:41:55;23.40;99.90
15690;DHT22;7945;48.816;11.506;2023-07-29T10:44:49;23.60;99.90
15690;DHT22;7945;48.816;11.506;2023-07-29T10:47:19;23.70;99.90
15690;DHT22;7945;48.816;11.506;2023-07-29T10:49:47;23.70;99.90
15690;DHT22;7945;48.816;11.506;2023-07-29T10:52:14;23.80;99.90
15690;DHT22;7945;48.816;11.506;2023-07-29T10:54:42;23.80;99.90
15690;DHT22;7945;48.816;11.506;2023-07-29T10:57:13;23.70;99.90
15690;DHT22;7945;48.816;11.506;2023-07-29T10:59:41;23.70;99.90
15690;DHT22;7945;48.816;11.506;2023-07-29T11:02:20;23.60;99.90
15690;DHT22;7945;48.816;11.506;2023-07-29T11:04:49;23.60;99.90
15690;DHT22;7945;48.816;11.506;2023-07-29T11:07:26;23.70;99.90
15690;DHT22;7945;48.816;11.506;2023-07-29T11:09:58;23.80;99.90
15690;DHT22;7945;48.816;11.506;2023-07-29T11:12:42;23.90;99.90
15690;DHT22;7945;48.816;11.506;2023-07-29T11:15:24;24.00;99.90
15690;DHT22;7945;48.816;11.506;2023-07-29T11:17:54;24.00;99.90
15690;DHT22;7945;48.816;11.506;2023-07-29T11:20:23;24.00;99.90
15690;DHT22;7945;48.816;11.506;2023-07-29T11:22:50;24.00;99.90
15690;DHT22;7945;48.816;11.506;2023-07-29T11:25:18;24.00;99.90
15690;DHT22;7945;48.816;11.506;2023-07-29T11:27:45;24.00;99.90
15690;DHT22;7945;48.816;11.506;2023-07-29T11:30:14;24.00;99.90
15690;DHT22;7945;48.816;11.506;2023-07-29T11:32:43;23.90;99.90
15690;DHT22;7945;48.816;11.506;2023-07-29T11:35:12;23.90;99.90
15690;DHT22;7945;48.816;11.506;2023-07-29T11:37:41;23.90;99.90
15690;DHT22;7945;48.816;11.506;2023-07-29T11:40:08;24.00;99.90
15690;DHT22;7945;48.816;11.506;2023-07-29T11:42:37;24.20;99.90
15690;DHT22;7945;48.816;11.506;2023-07-29T11:45:04;24.40;99.90
15690;DHT22;7945;48.816;11.506;2023-07-29T11:47:32;24.60;99.90
15690;DHT22;7945;48.816;11.506;2023-07-29T11:50:03;24.80;99.90
15690;DHT22;7945;48.816;11.506;2023-07-29T11:52:32;24.90;99.90
15690;DHT22;7945;48.816;11.506;2023-07-29T11:55:00;25.00;99.80
15690;DHT22;7945;48.816;11.506;2023-07-29T11:57:27;25.20;99.80
15690;DHT22;7945;48.816;11.506;2023-07-29T11:59:54;25.30;99.40
15690;DHT22;7945;48.816;11.506;2023-07-29T12:02:22;25.40;99.00
15690;DHT22;7945;48.816;11.506;2023-07-29T12:04:50;25.40;98.80
15690;DHT22;7945;48.816;11.506;2023-07-29T12:07:17;25.50;98.80
15690;DHT22;7945;48.816;11.506;2023-07-29T12:09:46;25.50;98.60
15690;DHT22;7945;48.816;11.506;2023-07-29T12:12:15;25.60;98.10
15690;DHT22;7945;48.816;11.506;2023-07-29T12:14:44;25.60;98.00
15690;DHT22;7945;48.816;11.506;2023-07-29T12:17:11;25.60;97.80
15690;DHT22;7945;48.816;11.506;2023-07-29T12:19:39;25.50;98.30
15690;DHT22;7945;48.816;11.506;2023-07-29T12:22:08;25.30;97.50
15690;DHT22;7945;48.816;11.506;2023-07-29T12:24:36;25.30;97.40
15690;DHT22;7945;48.816;11.506;2023-07-29T12:27:09;25.30;97.30
15690;DHT22;7945;48.816;11.506;2023-07-29T12:29:40;25.30;97.30
15690;DHT22;7945;48.816;11.506;2023-07-29T12:32:07;25.10;96.70
15690;DHT22;7945;48.816;11.506;2023-07-29T12:34:36;25.00;96.90
15690;DHT22;7945;48.816;11.506;2023-07-29T12:37:04;24.90;96.90
15690;DHT22;7945;48.816;11.506;2023-07-29T12:39:32;24.80;96.80
15690;DHT22;7945;48.816;11.506;2023-07-29T12:42:01;24.60;96.50
15690;DHT22;7945;48.816;11.506;2023-07-29T12:44:32;24.50;96.60
15690;DHT22;7945;48.816;11.506;2023-07-29T12:47:00;24.60;96.40
15690;DHT22;7945;48.816;11.506;2023-07-29T12:49:27;24.60;96.60
15690;DHT22;7945;48.816;11.506;2023-07-29T12:51:55;24.70;96.80
15690;DHT22;7945;48.816;11.506;2023-07-29T12:54:21;24.60;97.00
15690;DHT22;7945;48.816;11.506;2023-07-29T12:56:48;24.60;97.20
15690;DHT22;7945;48.816;11.506;2023-07-29T12:59:15;24.50;98.10
15690;DHT22;7945;48.816;11.506;2023-07-29T13:01:43;24.30;98.80
15690;DHT22;7945;48.816;11.506;2023-07-29T13:04:10;24.20;99.90
15690;DHT22;7945;48.816;11.506;2023-07-29T13:06:38;23.90;99.90
15690;DHT22;7945;48.816;11.506;2023-07-29T13:09:05;23.60;99.90
15690;DHT22;7945;48.816;11.506;2023-07-29T13:11:32;23.40;99.90
15690;DHT22;7945;48.816;11.506;2023-07-29T13:13:59;23.90;99.90
15690;DHT22;7945;48.816;11.506;2023-07-29T13:16:26;23.20;99.90
15690;DHT22;7945;48.816;11.506;2023-07-29T13:18:54;23.20;99.90
15690;DHT22;7945;48.816;11.506;2023-07-29T13:21:22;23.30;99.90
15690;DHT22;7945;48.816;11.506;2023-07-29T13:23:48;23.30;99.90
15690;DHT22;7945;48.816;11.506;2023-07-29T13:26:15;23.40;99.90
15690;DHT22;7945;48.816;11.506;2023-07-29T13:28:42;23.30;99.90
15690;DHT22;7945;48.816;11.506;2023-07-29T13:31:09;23.30;99.90
15690;DHT22;7945;48.816;11.506;2023-07-29T13:33:36;23.40;99.90
15690;DHT22;7945;48.816;11.506;2023-07-29T13:36:05;23.50;99.90
15690;DHT22;7945;48.816;11.506;2023-07-29T13:38:33;23.80;99.90
15690;DHT22;7945;48.816;11.506;2023-07-29T13:41:00;23.60;99.90
15690;DHT22;7945;48.816;11.506;2023-07-29T13:43:27;23.60;99.90
15690;DHT22;7945;48.816;11.506;2023-07-29T13:45:54;23.80;99.90
15690;DHT22;7945;48.816;11.506;2023-07-29T13:48:21;23.90;99.90
15690;DHT22;7945;48.816;11.506;2023-07-29T13:50:47;23.90;99.90
15690;DHT22;7945;48.816;11.506;2023-07-29T13:53:15;23.90;99.90
15690;DHT22;7945;48.816;11.506;2023-07-29T13:55:42;24.00;99.90
15690;DHT22;7945;48.816;11.506;2023-07-29T13:58:09;23.90;99.90
15690;DHT22;7945;48.816;11.506;2023-07-29T14:00:36;24.00;99.90
15690;DHT22;7945;48.816;11.506;2023-07-29T14:03:03;24.00;99.90
15690;DHT22;7945;48.816;11.506;2023-07-29T14:05:29;24.00;99.90
15690;DHT22;7945;48.816;11.506;2023-07-29T14:07:56;23.90;99.90
15690;DHT22;7945;48.816;11.506;2023-07-29T14:10:24;24.00;99.90
15690;DHT22;7945;48.816;11.506;2023-07-29T14:12:51;24.00;99.90
15690;DHT22;7945;48.816;11.506;2023-07-29T14:15:18;24.00;99.90
15690;DHT22;7945;48.816;11.506;2023-07-29T14:17:45;24.00;99.90
15690;DHT22;7945;48.816;11.506;2023-07-29T14:20:12;24.00;99.90
15690;DHT22;7945;48.816;11.506;2023-07-29T14:22:38;24.00;99.90
15690;DHT22;7945;48.816;11.506;2023-07-29T14:25:07;24.00;99.90
15690;DHT22;7945;48.816;11.506;2023-07-29T14:27:35;24.00;99.90
15690;DHT22;7945;48.816;11.506;2023-07-29T14:30:02;24.00;99.90
15690;DHT22;7945;48.816;11.506;2023-07-29T14:32:29;24.00;99.90
15690;DHT22;7945;48.816;11.506;2023-07-29T14:34:56;24.10;99.80
15690;DHT22;7945;48.816;11.506;2023-07-29T14:37:23;24.20;99.50
15690;DHT22;7945;48.816;11.506;2023-07-29T14:39:49;24.20;99.40
15690;DHT22;7945;48.816;11.506;2023-07-29T14:42:16;24.20;99.50
15690;DHT22;7945;48.816;11.506;2023-07-29T14:44:44;24.20;99.40
15690;DHT22;7945;48.816;11.506;2023-07-29T14:47:11;24.30;99.30
15690;DHT22;7945;48.816;11.506;2023-07-29T14:49:37;24.40;99.30
15690;DHT22;7945;48.816;11.506;2023-07-29T14:52:05;24.40;99.20
15690;DHT22;7945;48.816;11.506;2023-07-29T14:54:32;24.50;99.00
15690;DHT22;7945;48.816;11.506;2023-07-29T14:56:59;24.50;98.80
15690;DHT22;7945;48.816;11.506;2023-07-29T14:59:26;24.60;98.80
15690;DHT22;7945;48.816;11.506;2023-07-29T15:01:54;24.60;98.70
15690;DHT22;7945;48.816;11.506;2023-07-29T15:04:21;24.50;98.40
15690;DHT22;7945;48.816;11.506;2023-07-29T15:06:47;24.50;98.40
15690;DHT22;7945;48.816;11.506;2023-07-29T15:09:14;24.50;98.30
15690;DHT22;7945;48.816;11.506;2023-07-29T15:11:41;24.50;98.50
15690;DHT22;7945;48.816;11.506;2023-07-29T15:14:07;24.60;98.50
15690;DHT22;7945;48.816;11.506;2023-07-29T15:16:34;24.50;98.50
15690;DHT22;7945;48.816;11.506;2023-07-29T15:19:03;24.50;98.90
15690;DHT22;7945;48.816;11.506;2023-07-29T15:21:30;24.60;98.60
15690;DHT22;7945;48.816;11.506;2023-07-29T15:23:58;24.80;98.70
15690;DHT22;7945;48.816;11.506;2023-07-29T15:26:25;24.60;98.50
15690;DHT22;7945;48.816;11.506;2023-07-29T15:28:52;24.90;98.70
15690;DHT22;7945;48.816;11.506;2023-07-29T15:31:19;24.60;98.60
15690;DHT22;7945;48.816;11.506;2023-07-29T15:33:45;24.50;98.60
15690;DHT22;7945;48.816;11.506;2023-07-29T15:36:13;24.60;98.70